sensor_id;sensor_type;location;lat;lon;timestamp;P1;durP1;ratioP1;P2;durP2;ratioP2
830;SDS011;397;50.564;7.272;2022-08-20T00:00:46;4.20;;;2.40;;
830;SDS011;397;50.564;7.272;2022-08-20T00:03:26;3.33;;;2.17;;
830;SDS011;397;50.564;7.272;2022-08-20T00:05:56;3.70;;;2.57;;
830;SDS011;397;50.564;7.272;2022-08-20T00:08:25;3.70;;;3.07;;
830;SDS011;397;50.564;7.272;2022-08-20T00:10:53;5.90;;;2.77;;
830;SDS011;397;50.564;7.272;2022-08-20T00:13:24;3.80;;;2.07;;
830;SDS011;397;50.564;7.272;2022-08-20T00:15:55;3.47;;;2.47;;
830;SDS011;397;50.564;7.272;2022-08-20T00:18:22;3.30;;;2.60;;
830;SDS011;397;50.564;7.272;2022-08-20T00:20:51;3.00;;;2.70;;
830;SDS011;397;50.564;7.272;2022-08-20T00:23:20;3.33;;;2.90;;
830;SDS011;397;50.564;7.272;2022-08-20T00:25:48;4.37;;;3.13;;
830;SDS011;397;50.564;7.272;2022-08-20T00:28:16;4.90;;;2.60;;
830;SDS011;397;50.564;7.272;2022-08-20T00:30:44;3.63;;;3.03;;
830;SDS011;397;50.564;7.272;2022-08-20T00:33:14;3.67;;;2.00;;
830;SDS011;397;50.564;7.272;2022-08-20T00:35:47;3.47;;;3.17;;
830;SDS011;397;50.564;7.272;2022-08-20T00:38:17;3.07;;;2.70;;
830;SDS011;397;50.564;7.272;2022-08-20T00:40:47;3.80;;;2.77;;
830;SDS011;397;50.564;7.272;2022-08-20T00:43:28;3.10;;;2.70;;
830;SDS011;397;50.564;7.272;2022-08-20T00:46:00;4.53;;;2.90;;
830;SDS011;397;50.564;7.272;2022-08-20T00:48:30;4.80;;;3.40;;
830;SDS011;397;50.564;7.272;2022-08-20T00:51:09;4.23;;;3.60;;
830;SDS011;397;50.564;7.272;2022-08-20T00:53:54;3.63;;;3.07;;
830;SDS011;397;50.564;7.272;2022-08-20T00:56:24;3.50;;;3.20;;
830;SDS011;397;50.564;7.272;2022-08-20T00:58:52;4.03;;;3.60;;
830;SDS011;397;50.564;7.272;2022-08-20T01:01:20;5.10;;;3.53;;
830;SDS011;397;50.564;7.272;2022-08-20T01:03:48;7.50;;;4.17;;
830;SDS011;397;50.564;7.272;2022-08-20T01:06:18;3.47;;;3.17;;
830;SDS011;397;50.564;7.272;2022-08-20T01:08:45;3.50;;;3.20;;
830;SDS011;397;50.564;7.272;2022-08-20T01:11:13;3.70;;;3.30;;
830;SDS011;397;50.564;7.272;2022-08-20T01:13:42;4.60;;;4.10;;
830;SDS011;397;50.564;7.272;2022-08-20T01:16:14;4.23;;;3.83;;
830;SDS011;397;50.564;7.272;2022-08-20T01:18:43;5.97;;;4.37;;
830;SDS011;397;50.564;7.272;2022-08-20T01:21:13;4.23;;;3.83;;
830;SDS011;397;50.564;7.272;2022-08-20T01:23:53;4.40;;;4.00;;
830;SDS011;397;50.564;7.272;2022-08-20T01:26:28;4.57;;;4.17;;
830;SDS011;397;50.564;7.272;2022-08-20T01:28:55;5.27;;;4.50;;
830;SDS011;397;50.564;7.272;2022-08-20T01:31:25;4.77;;;4.37;;
830;SDS011;397;50.564;7.272;2022-08-20T01:33:55;5.00;;;4.37;;
830;SDS011;397;50.564;7.272;2022-08-20T01:39:14;4.70;;;4.30;;
830;SDS011;397;50.564;7.272;2022-08-20T01:41:51;4.33;;;3.90;;
830;SDS011;397;50.564;7.272;2022-08-20T01:44:23;4.10;;;3.37;;
830;SDS011;397;50.564;7.272;2022-08-20T01:46:52;4.33;;;3.90;;
830;SDS011;397;50.564;7.272;2022-08-20T01:49:26;4.60;;;3.87;;
830;SDS011;397;50.564;7.272;2022-08-20T01:51:55;4.10;;;3.47;;
830;SDS011;397;50.564;7.272;2022-08-20T01:54:26;3.57;;;3.27;;
830;SDS011;397;50.564;7.272;2022-08-20T01:59:24;4.60;;;4.20;;
830;SDS011;397;50.564;7.272;2022-08-20T02:01:52;5.77;;;5.27;;
830;SDS011;397;50.564;7.272;2022-08-20T02:04:21;5.87;;;5.33;;
830;SDS011;397;50.564;7.272;2022-08-20T02:06:58;5.40;;;4.90;;
830;SDS011;397;50.564;7.272;2022-08-20T02:09:28;4.20;;;3.80;;
830;SDS011;397;50.564;7.272;2022-08-20T02:11:57;4.83;;;4.23;;
830;SDS011;397;50.564;7.272;2022-08-20T02:14:25;4.20;;;3.47;;
830;SDS011;397;50.564;7.272;2022-08-20T02:16:53;4.20;;;3.80;;
830;SDS011;397;50.564;7.272;2022-08-20T02:19:27;4.87;;;3.83;;
830;SDS011;397;50.564;7.272;2022-08-20T02:21:57;4.23;;;3.20;;
830;SDS011;397;50.564;7.272;2022-08-20T02:24:27;4.67;;;3.43;;
830;SDS011;397;50.564;7.272;2022-08-20T02:26:54;6.60;;;3.30;;
830;SDS011;397;50.564;7.272;2022-08-20T02:32:45;4.20;;;3.17;;
830;SDS011;397;50.564;7.272;2022-08-20T02:35:13;3.67;;;3.03;;
830;SDS011;397;50.564;7.272;2022-08-20T02:37:42;3.13;;;2.83;;
830;SDS011;397;50.564;7.272;2022-08-20T02:40:12;3.80;;;3.40;;
830;SDS011;397;50.564;7.272;2022-08-20T02:42:41;3.90;;;3.27;;
830;SDS011;397;50.564;7.272;2022-08-20T02:45:10;3.67;;;2.93;;
830;SDS011;397;50.564;7.272;2022-08-20T02:47:40;3.50;;;3.20;;
830;SDS011;397;50.564;7.272;2022-08-20T02:50:15;4.80;;;3.77;;
830;SDS011;397;50.564;7.272;2022-08-20T02:52:40;3.87;;;2.90;;
830;SDS011;397;50.564;7.272;2022-08-20T02:55:08;3.90;;;3.60;;
830;SDS011;397;50.564;7.272;2022-08-20T02:57:37;5.10;;;3.77;;
830;SDS011;397;50.564;7.272;2022-08-20T03:00:09;4.23;;;3.40;;
830;SDS011;397;50.564;7.272;2022-08-20T03:02:41;3.73;;;3.30;;
830;SDS011;397;50.564;7.272;2022-08-20T03:05:09;3.50;;;3.10;;
830;SDS011;397;50.564;7.272;2022-08-20T03:07:45;5.53;;;3.80;;
830;SDS011;397;50.564;7.272;2022-08-20T03:10:13;4.43;;;3.20;;
830;SDS011;397;50.564;7.272;2022-08-20T03:12:41;3.53;;;2.90;;
830;SDS011;397;50.564;7.272;2022-08-20T03:15:09;3.30;;;3.00;;
830;SDS011;397;50.564;7.272;2022-08-20T03:17:37;4.17;;;3.10;;
830;SDS011;397;50.564;7.272;2022-08-20T03:20:05;3.90;;;3.50;;
830;SDS011;397;50.564;7.272;2022-08-20T03:22:34;3.70;;;3.30;;
830;SDS011;397;50.564;7.272;2022-08-20T03:25:02;3.70;;;3.23;;
830;SDS011;397;50.564;7.272;2022-08-20T03:27:30;5.53;;;2.73;;
830;SDS011;397;50.564;7.272;2022-08-20T03:29:57;4.03;;;3.03;;
830;SDS011;397;50.564;7.272;2022-08-20T03:32:25;3.30;;;3.00;;
830;SDS011;397;50.564;7.272;2022-08-20T03:34:53;2.60;;;2.10;;
830;SDS011;397;50.564;7.272;2022-08-20T03:37:20;3.37;;;2.83;;
830;SDS011;397;50.564;7.272;2022-08-20T03:39:48;3.20;;;2.70;;
830;SDS011;397;50.564;7.272;2022-08-20T03:42:15;3.70;;;3.30;;
830;SDS011;397;50.564;7.272;2022-08-20T03:44:43;4.43;;;3.40;;
830;SDS011;397;50.564;7.272;2022-08-20T03:47:11;2.50;;;2.30;;
830;SDS011;397;50.564;7.272;2022-08-20T03:49:38;3.70;;;2.87;;
830;SDS011;397;50.564;7.272;2022-08-20T03:52:06;4.83;;;3.27;;
830;SDS011;397;50.564;7.272;2022-08-20T03:54:34;3.73;;;3.40;;
830;SDS011;397;50.564;7.272;2022-08-20T03:57:01;2.97;;;2.67;;
830;SDS011;397;50.564;7.272;2022-08-20T03:59:29;3.40;;;3.10;;
830;SDS011;397;50.564;7.272;2022-08-20T04:01:58;3.30;;;3.00;;
830;SDS011;397;50.564;7.272;2022-08-20T04:04:26;3.70;;;3.30;;
830;SDS011;397;50.564;7.272;2022-08-20T04:06:53;3.60;;;2.60;;
830;SDS011;397;50.564;7.272;2022-08-20T04:09:21;4.20;;;3.00;;
830;SDS011;397;50.564;7.272;2022-08-20T04:11:48;3.00;;;2.60;;
830;SDS011;397;50.564;7.272;2022-08-20T04:14:17;3.23;;;2.60;;
830;SDS011;397;50.564;7.272;2022-08-20T04:16:45;3.60;;;3.30;;
830;SDS011;397;50.564;7.272;2022-08-20T04:19:12;3.27;;;2.97;;
830;SDS011;397;50.564;7.272;2022-08-20T04:21:40;3.00;;;2.57;;
830;SDS011;397;50.564;7.272;2022-08-20T04:24:07;3.00;;;2.70;;
830;SDS011;397;50.564;7.272;2022-08-20T04:26:35;3.40;;;3.10;;
830;SDS011;397;50.564;7.272;2022-08-20T04:29:03;3.67;;;2.90;;
830;SDS011;397;50.564;7.272;2022-08-20T04:31:31;2.90;;;2.67;;
830;SDS011;397;50.564;7.272;2022-08-20T04:34:04;3.10;;;2.80;;
830;SDS011;397;50.564;7.272;2022-08-20T04:36:28;4.13;;;3.60;;
830;SDS011;397;50.564;7.272;2022-08-20T04:38:56;3.80;;;3.50;;
830;SDS011;397;50.564;7.272;2022-08-20T04:41:24;3.93;;;3.33;;
830;SDS011;397;50.564;7.272;2022-08-20T04:43:52;3.50;;;3.20;;
830;SDS011;397;50.564;7.272;2022-08-20T04:46:21;4.57;;;3.43;;
830;SDS011;397;50.564;7.272;2022-08-20T04:48:52;4.47;;;3.17;;
830;SDS011;397;50.564;7.272;2022-08-20T04:51:20;2.97;;;2.67;;
830;SDS011;397;50.564;7.272;2022-08-20T04:53:47;3.40;;;3.07;;
830;SDS011;397;50.564;7.272;2022-08-20T04:56:15;4.50;;;3.60;;
830;SDS011;397;50.564;7.272;2022-08-20T04:58:44;4.20;;;3.37;;
830;SDS011;397;50.564;7.272;2022-08-20T05:01:13;3.30;;;2.83;;
830;SDS011;397;50.564;7.272;2022-08-20T05:03:41;4.50;;;3.10;;
830;SDS011;397;50.564;7.272;2022-08-20T05:06:11;3.80;;;3.47;;
830;SDS011;397;50.564;7.272;2022-08-20T05:08:39;3.70;;;3.40;;
830;SDS011;397;50.564;7.272;2022-08-20T05:11:07;3.90;;;3.40;;
830;SDS011;397;50.564;7.272;2022-08-20T05:13:35;4.33;;;3.83;;
830;SDS011;397;50.564;7.272;2022-08-20T05:16:04;4.37;;;3.97;;
830;SDS011;397;50.564;7.272;2022-08-20T05:18:32;3.50;;;3.20;;
830;SDS011;397;50.564;7.272;2022-08-20T05:21:01;5.73;;;3.60;;
830;SDS011;397;50.564;7.272;2022-08-20T05:23:32;3.57;;;2.70;;
830;SDS011;397;50.564;7.272;2022-08-20T05:26:01;4.40;;;3.83;;
830;SDS011;397;50.564;7.272;2022-08-20T05:28:32;4.30;;;3.13;;
830;SDS011;397;50.564;7.272;2022-08-20T05:31:01;3.87;;;3.47;;
830;SDS011;397;50.564;7.272;2022-08-20T05:33:30;4.30;;;3.90;;
830;SDS011;397;50.564;7.272;2022-08-20T05:35:57;4.80;;;3.87;;
830;SDS011;397;50.564;7.272;2022-08-20T05:38:25;4.30;;;3.90;;
830;SDS011;397;50.564;7.272;2022-08-20T05:40:55;3.30;;;3.00;;
830;SDS011;397;50.564;7.272;2022-08-20T05:43:23;5.43;;;3.50;;
830;SDS011;397;50.564;7.272;2022-08-20T05:45:50;4.87;;;4.10;;
830;SDS011;397;50.564;7.272;2022-08-20T05:48:19;4.50;;;3.80;;
830;SDS011;397;50.564;7.272;2022-08-20T05:50:48;3.57;;;3.27;;
830;SDS011;397;50.564;7.272;2022-08-20T05:53:19;3.77;;;3.03;;
830;SDS011;397;50.564;7.272;2022-08-20T05:55:47;3.97;;;3.43;;
830;SDS011;397;50.564;7.272;2022-08-20T05:58:17;4.20;;;3.80;;
830;SDS011;397;50.564;7.272;2022-08-20T06:00:49;3.80;;;3.50;;
830;SDS011;397;50.564;7.272;2022-08-20T06:03:18;2.83;;;2.53;;
830;SDS011;397;50.564;7.272;2022-08-20T06:06:04;3.53;;;3.23;;
830;SDS011;397;50.564;7.272;2022-08-20T06:08:32;3.50;;;2.53;;
830;SDS011;397;50.564;7.272;2022-08-20T06:11:00;4.23;;;3.23;;
830;SDS011;397;50.564;7.272;2022-08-20T06:13:28;7.53;;;3.47;;
830;SDS011;397;50.564;7.272;2022-08-20T06:15:56;4.33;;;3.93;;
830;SDS011;397;50.564;7.272;2022-08-20T06:18:24;4.10;;;3.30;;
830;SDS011;397;50.564;7.272;2022-08-20T06:20:51;3.90;;;3.27;;
830;SDS011;397;50.564;7.272;2022-08-20T06:23:19;3.13;;;2.50;;
830;SDS011;397;50.564;7.272;2022-08-20T06:28:34;3.80;;;3.23;;
830;SDS011;397;50.564;7.272;2022-08-20T06:31:02;6.93;;;2.57;;
830;SDS011;397;50.564;7.272;2022-08-20T06:33:29;3.90;;;3.50;;
830;SDS011;397;50.564;7.272;2022-08-20T06:35:57;3.67;;;3.37;;
830;SDS011;397;50.564;7.272;2022-08-20T06:38:24;3.67;;;3.37;;
830;SDS011;397;50.564;7.272;2022-08-20T06:40:52;4.87;;;3.60;;
830;SDS011;397;50.564;7.272;2022-08-20T06:43:19;3.40;;;3.10;;
830;SDS011;397;50.564;7.272;2022-08-20T06:45:47;4.20;;;3.80;;
830;SDS011;397;50.564;7.272;2022-08-20T06:48:14;4.93;;;3.57;;
830;SDS011;397;50.564;7.272;2022-08-20T06:50:45;3.97;;;3.20;;
830;SDS011;397;50.564;7.272;2022-08-20T06:53:14;4.33;;;3.33;;
830;SDS011;397;50.564;7.272;2022-08-20T06:55:45;4.93;;;4.50;;
830;SDS011;397;50.564;7.272;2022-08-20T06:58:13;5.33;;;4.83;;
830;SDS011;397;50.564;7.272;2022-08-20T07:00:42;5.63;;;5.17;;
830;SDS011;397;50.564;7.272;2022-08-20T07:03:10;6.53;;;5.93;;
830;SDS011;397;50.564;7.272;2022-08-20T07:05:39;8.50;;;7.60;;
830;SDS011;397;50.564;7.272;2022-08-20T07:08:09;7.70;;;7.10;;
830;SDS011;397;50.564;7.272;2022-08-20T07:10:39;7.33;;;6.63;;
830;SDS011;397;50.564;7.272;2022-08-20T07:13:09;8.77;;;7.97;;
830;SDS011;397;50.564;7.272;2022-08-20T07:15:39;10.27;;;9.40;;
830;SDS011;397;50.564;7.272;2022-08-20T07:18:07;9.10;;;8.40;;
830;SDS011;397;50.564;7.272;2022-08-20T07:20:37;11.87;;;10.87;;
830;SDS011;397;50.564;7.272;2022-08-20T07:23:05;10.67;;;9.67;;
830;SDS011;397;50.564;7.272;2022-08-20T07:25:35;7.90;;;7.20;;
830;SDS011;397;50.564;7.272;2022-08-20T07:28:04;11.03;;;9.30;;
830;SDS011;397;50.564;7.272;2022-08-20T07:30:34;10.27;;;9.27;;
830;SDS011;397;50.564;7.272;2022-08-20T07:33:20;9.10;;;8.30;;
830;SDS011;397;50.564;7.272;2022-08-20T07:35:47;10.77;;;9.87;;
830;SDS011;397;50.564;7.272;2022-08-20T07:38:16;9.70;;;7.40;;
830;SDS011;397;50.564;7.272;2022-08-20T07:40:53;9.60;;;8.80;;
830;SDS011;397;50.564;7.272;2022-08-20T07:43:22;10.33;;;9.07;;
830;SDS011;397;50.564;7.272;2022-08-20T07:45:51;9.53;;;8.73;;
830;SDS011;397;50.564;7.272;2022-08-20T07:48:24;9.20;;;8.50;;
830;SDS011;397;50.564;7.272;2022-08-20T07:50:56;10.40;;;9.30;;
830;SDS011;397;50.564;7.272;2022-08-20T07:53:25;8.17;;;7.50;;
830;SDS011;397;50.564;7.272;2022-08-20T07:55:53;6.30;;;5.70;;
830;SDS011;397;50.564;7.272;2022-08-20T07:58:22;8.07;;;5.50;;
830;SDS011;397;50.564;7.272;2022-08-20T08:00:49;5.07;;;4.57;;
830;SDS011;397;50.564;7.272;2022-08-20T08:06:04;4.80;;;4.30;;
830;SDS011;397;50.564;7.272;2022-08-20T08:08:32;4.97;;;4.37;;
830;SDS011;397;50.564;7.272;2022-08-20T08:11:00;4.27;;;3.70;;
830;SDS011;397;50.564;7.272;2022-08-20T08:13:30;4.80;;;3.73;;
830;SDS011;397;50.564;7.272;2022-08-20T08:16:04;6.13;;;4.63;;
830;SDS011;397;50.564;7.272;2022-08-20T08:18:34;7.07;;;6.47;;
830;SDS011;397;50.564;7.272;2022-08-20T08:21:04;6.27;;;5.17;;
830;SDS011;397;50.564;7.272;2022-08-20T08:23:33;6.73;;;4.57;;
830;SDS011;397;50.564;7.272;2022-08-20T08:26:01;5.60;;;4.20;;
830;SDS011;397;50.564;7.272;2022-08-20T08:28:28;5.07;;;2.73;;
830;SDS011;397;50.564;7.272;2022-08-20T08:30:56;4.60;;;3.43;;
830;SDS011;397;50.564;7.272;2022-08-20T08:33:25;3.50;;;3.20;;
830;SDS011;397;50.564;7.272;2022-08-20T08:35:59;6.00;;;3.40;;
830;SDS011;397;50.564;7.272;2022-08-20T08:38:34;4.60;;;3.20;;
830;SDS011;397;50.564;7.272;2022-08-20T08:41:09;3.60;;;3.20;;
830;SDS011;397;50.564;7.272;2022-08-20T08:43:33;8.47;;;3.10;;
830;SDS011;397;50.564;7.272;2022-08-20T08:46:04;3.60;;;2.57;;
830;SDS011;397;50.564;7.272;2022-08-20T08:48:41;3.47;;;2.83;;
830;SDS011;397;50.564;7.272;2022-08-20T08:51:11;4.77;;;2.80;;
830;SDS011;397;50.564;7.272;2022-08-20T08:53:43;8.30;;;2.73;;
830;SDS011;397;50.564;7.272;2022-08-20T08:56:12;3.10;;;2.70;;
830;SDS011;397;50.564;7.272;2022-08-20T08:58:41;3.27;;;2.47;;
830;SDS011;397;50.564;7.272;2022-08-20T09:01:10;5.37;;;2.93;;
830;SDS011;397;50.564;7.272;2022-08-20T09:03:39;3.20;;;2.90;;
830;SDS011;397;50.564;7.272;2022-08-20T09:06:14;4.03;;;3.20;;
830;SDS011;397;50.564;7.272;2022-08-20T09:08:51;3.10;;;2.53;;
830;SDS011;397;50.564;7.272;2022-08-20T09:11:22;3.90;;;3.50;;
830;SDS011;397;50.564;7.272;2022-08-20T09:13:50;5.47;;;4.30;;
830;SDS011;397;50.564;7.272;2022-08-20T09:16:20;4.23;;;3.50;;
830;SDS011;397;50.564;7.272;2022-08-20T09:18:50;4.30;;;3.07;;
830;SDS011;397;50.564;7.272;2022-08-20T09:21:18;4.53;;;2.97;;
830;SDS011;397;50.564;7.272;2022-08-20T09:23:45;5.13;;;3.50;;
830;SDS011;397;50.564;7.272;2022-08-20T09:26:13;5.30;;;4.33;;
830;SDS011;397;50.564;7.272;2022-08-20T09:28:40;5.93;;;4.80;;
830;SDS011;397;50.564;7.272;2022-08-20T09:31:08;5.43;;;4.70;;
830;SDS011;397;50.564;7.272;2022-08-20T09:33:35;5.57;;;4.03;;
830;SDS011;397;50.564;7.272;2022-08-20T09:36:03;4.37;;;3.60;;
830;SDS011;397;50.564;7.272;2022-08-20T09:38:30;4.30;;;3.27;;
830;SDS011;397;50.564;7.272;2022-08-20T09:40:58;4.30;;;2.73;;
830;SDS011;397;50.564;7.272;2022-08-20T09:43:25;4.50;;;3.00;;
830;SDS011;397;50.564;7.272;2022-08-20T09:45:53;4.27;;;3.00;;
830;SDS011;397;50.564;7.272;2022-08-20T09:48:21;4.43;;;3.60;;
830;SDS011;397;50.564;7.272;2022-08-20T09:50:48;5.10;;;2.90;;
830;SDS011;397;50.564;7.272;2022-08-20T09:53:16;4.60;;;3.17;;
830;SDS011;397;50.564;7.272;2022-08-20T09:55:50;4.30;;;2.77;;
830;SDS011;397;50.564;7.272;2022-08-20T09:58:21;3.20;;;2.20;;
830;SDS011;397;50.564;7.272;2022-08-20T10:01:16;4.40;;;2.00;;
830;SDS011;397;50.564;7.272;2022-08-20T10:03:45;4.30;;;2.13;;
830;SDS011;397;50.564;7.272;2022-08-20T10:06:14;2.80;;;1.87;;
830;SDS011;397;50.564;7.272;2022-08-20T10:08:44;4.60;;;1.90;;
830;SDS011;397;50.564;7.272;2022-08-20T10:11:11;4.33;;;2.73;;
830;SDS011;397;50.564;7.272;2022-08-20T10:13:39;6.80;;;2.80;;
830;SDS011;397;50.564;7.272;2022-08-20T10:16:06;4.37;;;2.40;;
830;SDS011;397;50.564;7.272;2022-08-20T10:18:34;4.80;;;2.90;;
830;SDS011;397;50.564;7.272;2022-08-20T10:21:02;4.30;;;2.03;;
830;SDS011;397;50.564;7.272;2022-08-20T10:23:37;4.93;;;2.17;;
830;SDS011;397;50.564;7.272;2022-08-20T10:26:06;3.07;;;2.17;;
830;SDS011;397;50.564;7.272;2022-08-20T10:28:34;3.20;;;2.50;;
830;SDS011;397;50.564;7.272;2022-08-20T10:31:06;3.87;;;2.30;;
830;SDS011;397;50.564;7.272;2022-08-20T10:33:34;5.23;;;1.90;;
830;SDS011;397;50.564;7.272;2022-08-20T10:36:09;3.80;;;2.60;;
830;SDS011;397;50.564;7.272;2022-08-20T10:38:42;4.97;;;4.40;;
830;SDS011;397;50.564;7.272;2022-08-20T10:41:09;9.93;;;9.00;;
830;SDS011;397;50.564;7.272;2022-08-20T10:43:37;2.83;;;1.97;;
830;SDS011;397;50.564;7.272;2022-08-20T10:46:05;3.63;;;2.07;;
830;SDS011;397;50.564;7.272;2022-08-20T10:48:32;4.07;;;2.20;;
830;SDS011;397;50.564;7.272;2022-08-20T10:51:00;3.80;;;3.20;;
830;SDS011;397;50.564;7.272;2022-08-20T10:53:27;4.20;;;2.17;;
830;SDS011;397;50.564;7.272;2022-08-20T10:55:55;3.60;;;3.10;;
830;SDS011;397;50.564;7.272;2022-08-20T10:58:23;4.10;;;3.70;;
830;SDS011;397;50.564;7.272;2022-08-20T11:00:51;8.10;;;3.90;;
830;SDS011;397;50.564;7.272;2022-08-20T11:03:19;5.43;;;3.23;;
830;SDS011;397;50.564;7.272;2022-08-20T11:05:46;3.50;;;3.20;;
830;SDS011;397;50.564;7.272;2022-08-20T11:08:14;4.60;;;3.73;;
830;SDS011;397;50.564;7.272;2022-08-20T11:10:42;3.60;;;2.80;;
830;SDS011;397;50.564;7.272;2022-08-20T11:13:10;4.63;;;3.47;;
830;SDS011;397;50.564;7.272;2022-08-20T11:15:38;4.37;;;3.47;;
830;SDS011;397;50.564;7.272;2022-08-20T11:18:07;3.23;;;2.70;;
830;SDS011;397;50.564;7.272;2022-08-20T11:20:35;3.80;;;3.13;;
830;SDS011;397;50.564;7.272;2022-08-20T11:23:03;5.03;;;3.27;;
830;SDS011;397;50.564;7.272;2022-08-20T11:25:31;3.50;;;2.60;;
830;SDS011;397;50.564;7.272;2022-08-20T11:27:58;4.20;;;3.80;;
830;SDS011;397;50.564;7.272;2022-08-20T11:30:27;5.33;;;4.70;;
830;SDS011;397;50.564;7.272;2022-08-20T11:32:56;5.87;;;4.43;;
830;SDS011;397;50.564;7.272;2022-08-20T11:35:25;5.60;;;5.03;;
830;SDS011;397;50.564;7.272;2022-08-20T11:37:54;5.20;;;4.70;;
830;SDS011;397;50.564;7.272;2022-08-20T11:40:30;8.20;;;5.57;;
830;SDS011;397;50.564;7.272;2022-08-20T11:42:56;5.50;;;5.00;;
830;SDS011;397;50.564;7.272;2022-08-20T11:45:24;7.83;;;4.67;;
830;SDS011;397;50.564;7.272;2022-08-20T11:47:52;6.80;;;5.07;;
830;SDS011;397;50.564;7.272;2022-08-20T11:50:20;7.63;;;6.27;;
830;SDS011;397;50.564;7.272;2022-08-20T11:52:47;6.40;;;5.70;;
830;SDS011;397;50.564;7.272;2022-08-20T11:55:15;6.17;;;5.67;;
830;SDS011;397;50.564;7.272;2022-08-20T11:57:44;6.10;;;5.50;;
830;SDS011;397;50.564;7.272;2022-08-20T12:00:15;5.53;;;4.80;;
830;SDS011;397;50.564;7.272;2022-08-20T12:02:43;5.53;;;4.03;;
830;SDS011;397;50.564;7.272;2022-08-20T12:05:11;7.63;;;5.73;;
830;SDS011;397;50.564;7.272;2022-08-20T12:07:39;5.20;;;4.70;;
830;SDS011;397;50.564;7.272;2022-08-20T12:10:06;8.27;;;5.77;;
830;SDS011;397;50.564;7.272;2022-08-20T12:12:35;6.03;;;5.43;;
830;SDS011;397;50.564;7.272;2022-08-20T12:15:04;7.70;;;5.67;;
830;SDS011;397;50.564;7.272;2022-08-20T12:17:33;5.67;;;4.90;;
830;SDS011;397;50.564;7.272;2022-08-20T12:20:04;7.13;;;6.33;;
830;SDS011;397;50.564;7.272;2022-08-20T12:22:32;7.20;;;6.50;;
830;SDS011;397;50.564;7.272;2022-08-20T12:24:59;6.50;;;4.43;;
830;SDS011;397;50.564;7.272;2022-08-20T12:27:29;6.90;;;4.60;;
830;SDS011;397;50.564;7.272;2022-08-20T12:29:58;7.43;;;4.33;;
830;SDS011;397;50.564;7.272;2022-08-20T12:32:28;6.30;;;4.97;;
830;SDS011;397;50.564;7.272;2022-08-20T12:34:57;5.80;;;4.43;;
830;SDS011;397;50.564;7.272;2022-08-20T12:37:26;7.97;;;4.07;;
830;SDS011;397;50.564;7.272;2022-08-20T12:39:57;6.77;;;4.53;;
830;SDS011;397;50.564;7.272;2022-08-20T12:42:26;10.37;;;4.33;;
830;SDS011;397;50.564;7.272;2022-08-20T12:44:55;4.80;;;4.30;;
830;SDS011;397;50.564;7.272;2022-08-20T12:47:25;8.13;;;4.30;;
830;SDS011;397;50.564;7.272;2022-08-20T12:49:59;6.60;;;3.63;;
830;SDS011;397;50.564;7.272;2022-08-20T12:52:28;4.83;;;3.83;;
830;SDS011;397;50.564;7.272;2022-08-20T12:54:56;5.20;;;3.43;;
830;SDS011;397;50.564;7.272;2022-08-20T12:57:35;9.40;;;4.40;;
830;SDS011;397;50.564;7.272;2022-08-20T13:00:19;6.50;;;3.90;;
830;SDS011;397;50.564;7.272;2022-08-20T13:02:45;6.10;;;3.37;;
830;SDS011;397;50.564;7.272;2022-08-20T13:05:13;4.23;;;2.90;;
830;SDS011;397;50.564;7.272;2022-08-20T13:07:42;5.10;;;3.87;;
830;SDS011;397;50.564;7.272;2022-08-20T13:10:13;8.20;;;3.90;;
830;SDS011;397;50.564;7.272;2022-08-20T13:12:42;7.80;;;3.80;;
830;SDS011;397;50.564;7.272;2022-08-20T13:15:09;6.33;;;4.30;;
830;SDS011;397;50.564;7.272;2022-08-20T13:17:37;8.10;;;4.23;;
830;SDS011;397;50.564;7.272;2022-08-20T13:20:06;6.30;;;4.37;;
830;SDS011;397;50.564;7.272;2022-08-20T13:22:36;5.50;;;3.70;;
830;SDS011;397;50.564;7.272;2022-08-20T13:25:04;7.90;;;4.50;;
830;SDS011;397;50.564;7.272;2022-08-20T13:27:56;8.27;;;4.50;;
830;SDS011;397;50.564;7.272;2022-08-20T13:30:26;8.17;;;4.50;;
830;SDS011;397;50.564;7.272;2022-08-20T13:32:54;7.37;;;4.63;;
830;SDS011;397;50.564;7.272;2022-08-20T13:35:22;7.40;;;4.40;;
830;SDS011;397;50.564;7.272;2022-08-20T13:37:50;8.20;;;3.90;;
830;SDS011;397;50.564;7.272;2022-08-20T13:40:17;8.87;;;4.93;;
830;SDS011;397;50.564;7.272;2022-08-20T13:42:45;8.67;;;4.30;;
830;SDS011;397;50.564;7.272;2022-08-20T13:45:13;8.43;;;4.70;;
830;SDS011;397;50.564;7.272;2022-08-20T13:47:40;8.00;;;5.00;;
830;SDS011;397;50.564;7.272;2022-08-20T13:50:16;6.37;;;4.63;;
830;SDS011;397;50.564;7.272;2022-08-20T13:52:44;9.63;;;5.00;;
830;SDS011;397;50.564;7.272;2022-08-20T13:55:13;5.60;;;4.30;;
830;SDS011;397;50.564;7.272;2022-08-20T13:57:43;8.97;;;6.20;;
830;SDS011;397;50.564;7.272;2022-08-20T14:00:13;9.67;;;5.07;;
830;SDS011;397;50.564;7.272;2022-08-20T14:02:42;9.07;;;5.23;;
830;SDS011;397;50.564;7.272;2022-08-20T14:05:09;7.50;;;4.80;;
830;SDS011;397;50.564;7.272;2022-08-20T14:07:37;6.80;;;4.40;;
830;SDS011;397;50.564;7.272;2022-08-20T14:10:06;12.37;;;5.80;;
830;SDS011;397;50.564;7.272;2022-08-20T14:12:36;7.30;;;4.87;;
830;SDS011;397;50.564;7.272;2022-08-20T14:15:04;13.43;;;5.40;;
830;SDS011;397;50.564;7.272;2022-08-20T14:17:35;8.57;;;5.23;;
830;SDS011;397;50.564;7.272;2022-08-20T14:20:05;12.87;;;5.07;;
830;SDS011;397;50.564;7.272;2022-08-20T14:22:34;12.43;;;4.93;;
830;SDS011;397;50.564;7.272;2022-08-20T14:25:03;9.43;;;4.80;;
830;SDS011;397;50.564;7.272;2022-08-20T14:27:32;6.70;;;5.20;;
830;SDS011;397;50.564;7.272;2022-08-20T14:30:00;8.27;;;5.00;;
830;SDS011;397;50.564;7.272;2022-08-20T14:32:29;10.83;;;5.00;;
830;SDS011;397;50.564;7.272;2022-08-20T14:34:56;10.30;;;4.80;;
830;SDS011;397;50.564;7.272;2022-08-20T14:37:25;10.27;;;5.13;;
830;SDS011;397;50.564;7.272;2022-08-20T14:39:54;5.70;;;4.30;;
830;SDS011;397;50.564;7.272;2022-08-20T14:42:24;8.37;;;4.57;;
830;SDS011;397;50.564;7.272;2022-08-20T14:44:56;7.23;;;4.20;;
830;SDS011;397;50.564;7.272;2022-08-20T14:47:33;9.57;;;4.33;;
830;SDS011;397;50.564;7.272;2022-08-20T14:50:22;13.23;;;5.53;;
830;SDS011;397;50.564;7.272;2022-08-20T14:52:51;8.13;;;4.60;;
830;SDS011;397;50.564;7.272;2022-08-20T14:55:20;11.43;;;5.63;;
830;SDS011;397;50.564;7.272;2022-08-20T14:57:50;11.23;;;5.07;;
830;SDS011;397;50.564;7.272;2022-08-20T15:00:20;8.07;;;5.43;;
830;SDS011;397;50.564;7.272;2022-08-20T15:02:48;7.50;;;4.80;;
830;SDS011;397;50.564;7.272;2022-08-20T15:05:16;11.57;;;4.90;;
830;SDS011;397;50.564;7.272;2022-08-20T15:07:45;9.83;;;4.70;;
830;SDS011;397;50.564;7.272;2022-08-20T15:10:15;11.10;;;5.30;;
830;SDS011;397;50.564;7.272;2022-08-20T15:12:45;8.80;;;5.50;;
830;SDS011;397;50.564;7.272;2022-08-20T15:15:13;8.07;;;4.70;;
830;SDS011;397;50.564;7.272;2022-08-20T15:17:45;11.10;;;5.40;;
830;SDS011;397;50.564;7.272;2022-08-20T15:20:17;8.70;;;5.67;;
830;SDS011;397;50.564;7.272;2022-08-20T15:22:46;10.27;;;5.77;;
830;SDS011;397;50.564;7.272;2022-08-20T15:25:15;10.30;;;5.33;;
830;SDS011;397;50.564;7.272;2022-08-20T15:27:45;10.20;;;6.10;;
830;SDS011;397;50.564;7.272;2022-08-20T15:30:16;10.00;;;5.07;;
830;SDS011;397;50.564;7.272;2022-08-20T15:32:43;10.67;;;4.50;;
830;SDS011;397;50.564;7.272;2022-08-20T15:35:10;10.17;;;6.17;;
830;SDS011;397;50.564;7.272;2022-08-20T15:37:44;9.20;;;5.30;;
830;SDS011;397;50.564;7.272;2022-08-20T15:40:08;10.23;;;5.17;;
830;SDS011;397;50.564;7.272;2022-08-20T15:42:38;11.20;;;4.70;;
830;SDS011;397;50.564;7.272;2022-08-20T15:45:06;11.00;;;5.13;;
830;SDS011;397;50.564;7.272;2022-08-20T15:47:36;10.20;;;4.93;;
830;SDS011;397;50.564;7.272;2022-08-20T15:50:14;7.33;;;4.63;;
830;SDS011;397;50.564;7.272;2022-08-20T15:52:42;8.90;;;4.93;;
830;SDS011;397;50.564;7.272;2022-08-20T15:55:12;8.23;;;4.90;;
830;SDS011;397;50.564;7.272;2022-08-20T15:57:52;9.53;;;4.73;;
830;SDS011;397;50.564;7.272;2022-08-20T16:00:35;10.83;;;5.30;;
830;SDS011;397;50.564;7.272;2022-08-20T16:06:08;7.27;;;4.23;;
830;SDS011;397;50.564;7.272;2022-08-20T16:08:48;7.03;;;3.90;;
830;SDS011;397;50.564;7.272;2022-08-20T16:11:36;8.60;;;4.40;;
830;SDS011;397;50.564;7.272;2022-08-20T16:14:22;7.87;;;4.20;;
830;SDS011;397;50.564;7.272;2022-08-20T16:16:53;7.27;;;4.07;;